createdAt,value
2018-10-11T00:00:57.281Z,13.70
2018-10-11T00:03:25.379Z,13.76
2018-10-11T00:05:53.495Z,13.80
2018-10-11T00:08:21.597Z,13.84
2018-10-11T00:10:49.696Z,13.92
2018-10-11T00:13:17.789Z,13.99
2018-10-11T00:15:45.881Z,14.03
2018-10-11T00:18:13.965Z,14.11
2018-10-11T00:20:42.118Z,14.18
2018-10-11T00:23:10.249Z,14.27
2018-10-11T00:25:38.358Z,14.36
2018-10-11T00:28:06.789Z,14.44
2018-10-11T00:30:34.888Z,14.53
2018-10-11T00:33:03.083Z,14.61
2018-10-11T00:35:31.195Z,14.67
2018-10-11T00:37:59.289Z,14.70
2018-10-11T00:40:27.389Z,14.74
2018-10-11T00:42:55.478Z,14.69
2018-10-11T00:45:23.633Z,14.67
2018-10-11T00:47:51.728Z,14.63
2018-10-11T00:50:19.828Z,14.58
2018-10-11T00:52:47.923Z,14.54
2018-10-11T00:55:16.033Z,14.50
2018-10-11T00:57:44.124Z,14.45
2018-10-11T01:00:12.297Z,14.42
2018-10-11T01:02:40.418Z,14.41
2018-10-11T01:05:08.529Z,14.39
2018-10-11T01:07:36.625Z,14.37
2018-10-11T01:10:04.800Z,14.32
2018-10-11T01:12:32.875Z,14.25
2018-10-11T01:15:00.979Z,14.19
2018-10-11T01:17:29.069Z,14.08
2018-10-11T01:19:57.164Z,13.97
2018-10-11T01:22:25.257Z,13.87
2018-10-11T01:24:53.337Z,13.79
2018-10-11T01:27:21.433Z,13.75
2018-10-11T01:29:49.616Z,13.72
2018-10-11T01:32:17.637Z,13.66
2018-10-11T01:34:45.803Z,13.61
2018-10-11T01:37:13.930Z,13.57
2018-10-11T01:39:42.049Z,13.52
2018-10-11T01:42:10.157Z,13.48
2018-10-11T01:44:38.489Z,13.44
2018-10-11T01:47:06.681Z,13.39
2018-10-11T01:49:34.793Z,13.35
2018-10-11T01:52:02.894Z,13.30
2018-10-11T01:54:30.985Z,13.26
2018-10-11T01:56:59.081Z,13.27
2018-10-11T01:59:27.160Z,13.28
2018-10-11T02:01:55.222Z,13.29
2018-10-11T02:04:23.301Z,13.28
2018-10-11T02:06:51.359Z,13.24
2018-10-11T02:09:19.494Z,13.18
2018-10-11T02:11:47.519Z,13.08
2018-10-11T02:14:15.617Z,13.06
2018-10-11T02:16:43.744Z,13.03
2018-10-11T02:19:12.145Z,13.02
2018-10-11T02:21:40.472Z,13.06
2018-10-11T02:24:08.608Z,13.13
2018-10-11T02:26:36.688Z,13.19
2018-10-11T02:29:04.744Z,13.23
2018-10-11T02:31:32.837Z,13.21
2018-10-11T02:34:00.926Z,13.18
2018-10-11T02:36:29.012Z,13.12
2018-10-11T02:38:57.189Z,13.11
2018-10-11T02:41:25.381Z,13.10
2018-10-11T02:43:53.740Z,13.03
2018-10-11T02:46:21.832Z,12.97
2018-10-11T02:48:49.917Z,12.94
2018-10-11T02:51:18.032Z,12.90
2018-10-11T02:53:46.116Z,12.85
2018-10-11T02:56:14.204Z,12.78
2018-10-11T02:58:53.777Z,12.68
2018-10-11T03:01:21.881Z,12.56
2018-10-11T03:03:52.828Z,12.49
2018-10-11T03:06:20.969Z,12.34
2018-10-11T03:08:49.038Z,12.35
2018-10-11T03:11:17.129Z,12.27
2018-10-11T03:13:45.219Z,12.23
2018-10-11T03:16:13.344Z,12.17
2018-10-11T03:18:41.461Z,12.10
2018-10-11T03:21:09.568Z,12.05
2018-10-11T03:23:37.664Z,12.00
2018-10-11T03:26:05.761Z,11.99
2018-10-11T03:28:33.833Z,12.00
2018-10-11T03:31:01.928Z,11.99
2018-10-11T03:33:30.063Z,11.96
2018-10-11T03:35:58.160Z,11.93
2018-10-11T03:38:26.269Z,11.87
2018-10-11T03:40:54.449Z,11.82
2018-10-11T03:43:22.689Z,11.72
2018-10-11T03:45:50.776Z,11.68
2018-10-11T03:48:18.863Z,11.66
2018-10-11T03:50:46.953Z,11.65
2018-10-11T03:53:15.062Z,11.64
2018-10-11T03:55:43.159Z,11.64
2018-10-11T03:58:11.252Z,11.64
2018-10-11T04:00:39.356Z,11.64
2018-10-11T04:03:07.507Z,11.63
2018-10-11T04:05:35.615Z,11.62
2018-10-11T04:08:03.692Z,11.63
2018-10-11T04:10:31.844Z,11.61
2018-10-11T04:12:59.944Z,11.60
2018-10-11T04:15:28.179Z,11.60
2018-10-11T04:17:56.345Z,11.58
2018-10-11T04:20:24.473Z,11.55
2018-10-11T04:22:52.585Z,11.52
2018-10-11T04:25:20.692Z,11.49
2018-10-11T04:27:48.787Z,11.51
2018-10-11T04:30:16.870Z,11.51
2018-10-11T04:32:44.960Z,11.51
2018-10-11T04:35:13.160Z,11.51
2018-10-11T04:37:41.524Z,11.51
2018-10-11T04:40:09.649Z,11.50
2018-10-11T04:42:37.747Z,11.49
2018-10-11T04:45:05.820Z,11.50
2018-10-11T04:47:33.912Z,11.49
2018-10-11T04:50:02.005Z,11.51
2018-10-11T04:52:30.238Z,11.55
2018-10-11T04:54:58.328Z,11.59
2018-10-11T04:57:26.438Z,11.62
2018-10-11T04:59:54.532Z,11.67
2018-10-11T05:02:22.625Z,11.68
2018-10-11T05:04:50.717Z,11.67
2018-10-11T05:07:18.920Z,11.63
2018-10-11T05:09:47.048Z,11.58
2018-10-11T05:12:15.240Z,11.54
2018-10-11T05:14:43.672Z,11.47
2018-10-11T05:17:11.815Z,11.44
2018-10-11T05:19:40.585Z,11.41
2018-10-11T05:22:08.672Z,11.39
2018-10-11T05:24:36.760Z,11.36
2018-10-11T05:27:05.570Z,11.31
2018-10-11T05:29:33.710Z,11.27
2018-10-11T05:32:01.946Z,11.22
2018-10-11T05:34:30.072Z,11.19
2018-10-11T05:36:58.200Z,11.16
2018-10-11T05:39:26.389Z,11.15
2018-10-11T05:41:54.499Z,11.14
2018-10-11T05:44:22.662Z,11.12
2018-10-11T05:46:50.764Z,11.14
2018-10-11T05:49:18.916Z,11.15
2018-10-11T05:51:47.055Z,11.17
2018-10-11T05:54:15.138Z,11.19
2018-10-11T05:56:45.278Z,11.20
2018-10-11T05:59:13.330Z,11.21
2018-10-11T06:01:41.405Z,11.24
2018-10-11T06:04:11.115Z,11.31
2018-10-11T06:06:39.245Z,11.54
2018-10-11T06:09:08.388Z,11.74
2018-10-11T06:11:36.592Z,11.99
2018-10-11T06:14:04.772Z,12.27
2018-10-11T06:16:33.108Z,12.61
2018-10-11T06:19:01.192Z,12.97
2018-10-11T06:21:29.477Z,13.31
2018-10-11T06:23:58.780Z,13.64
2018-10-11T06:26:26.881Z,13.86
2018-10-11T06:28:54.994Z,14.21
2018-10-11T06:31:23.173Z,14.57
2018-10-11T06:36:31.326Z,15.29
2018-10-11T06:38:59.781Z,15.57
2018-10-11T06:41:28.087Z,15.85
2018-10-11T06:43:56.667Z,16.14
2018-10-11T06:46:24.885Z,16.47
2018-10-11T06:48:53.060Z,16.74
2018-10-11T06:51:21.302Z,16.81
2018-10-11T06:53:52.721Z,16.76
2018-10-11T06:56:21.345Z,16.94
2018-10-11T06:58:49.493Z,17.39
2018-10-11T07:01:17.687Z,17.79
2018-10-11T07:03:45.829Z,18.06
2018-10-11T07:06:14.012Z,18.39
2018-10-11T07:08:42.302Z,18.70
2018-10-11T07:11:10.417Z,18.96
2018-10-11T07:13:38.970Z,19.18
2018-10-11T07:16:07.169Z,19.28
2018-10-11T07:18:35.305Z,19.49
2018-10-11T07:21:03.464Z,19.71
2018-10-11T07:23:31.767Z,19.93
2018-10-11T07:25:59.967Z,20.02
2018-10-11T07:28:28.136Z,20.29
2018-10-11T07:30:56.281Z,20.46
2018-10-11T07:33:24.822Z,20.94
2018-10-11T07:35:53.044Z,21.19
2018-10-11T07:38:21.273Z,21.45
2018-10-11T07:40:49.453Z,21.76
2018-10-11T07:43:17.591Z,22.06
2018-10-11T07:45:45.713Z,22.24
2018-10-11T07:48:13.843Z,22.47
2018-10-11T07:50:42.072Z,22.62
2018-10-11T07:53:10.258Z,22.64
2018-10-11T07:55:38.452Z,22.62
2018-10-11T07:58:06.612Z,22.41
2018-10-11T08:00:34.736Z,22.06
2018-10-11T08:03:02.840Z,21.74
2018-10-11T08:05:37.605Z,21.78
2018-10-11T08:08:05.745Z,21.80
2018-10-11T08:10:33.977Z,21.76
2018-10-11T08:13:02.080Z,21.80
2018-10-11T08:15:30.196Z,21.68
2018-10-11T08:17:58.676Z,21.57
2018-10-11T08:20:26.791Z,21.50
2018-10-11T08:22:54.891Z,21.35
2018-10-11T08:25:23.380Z,21.17
2018-10-11T08:27:51.291Z,21.15
2018-10-11T08:30:19.474Z,21.12
2018-10-11T08:32:47.590Z,21.05
2018-10-11T08:35:15.772Z,21.03
2018-10-11T08:37:43.962Z,21.06
2018-10-11T08:40:12.034Z,21.00
2018-10-11T08:42:40.140Z,20.94
2018-10-11T08:45:08.310Z,20.43
2018-10-11T08:47:36.445Z,20.07
2018-10-11T08:50:04.672Z,19.89
2018-10-11T08:52:32.796Z,19.81
2018-10-11T08:55:01.013Z,19.74
2018-10-11T08:57:29.162Z,19.69
2018-10-11T08:59:57.346Z,19.63
2018-10-11T09:02:25.505Z,19.60
2018-10-11T09:04:53.641Z,19.61
2018-10-11T09:07:21.882Z,19.65
2018-10-11T09:09:53.634Z,19.67
2018-10-11T09:12:18.624Z,19.71
2018-10-11T09:14:46.837Z,19.73
2018-10-11T09:17:15.052Z,19.72
2018-10-11T09:19:43.249Z,19.79
2018-10-11T09:22:11.464Z,19.89
2018-10-11T09:24:39.589Z,19.99
2018-10-11T09:27:07.718Z,20.14
2018-10-11T09:29:35.869Z,20.27
2018-10-11T09:32:03.960Z,20.38
2018-10-11T09:34:32.253Z,20.58
2018-10-11T09:37:00.417Z,20.64
2018-10-11T09:39:28.624Z,20.70
2018-10-11T09:41:56.758Z,20.75
2018-10-11T09:44:24.943Z,20.90
2018-10-11T09:46:53.152Z,20.97
2018-10-11T09:49:21.284Z,21.04
2018-10-11T09:51:49.461Z,21.07
2018-10-11T09:54:17.580Z,21.09
2018-10-11T09:57:48.737Z,21.10
2018-10-11T10:00:22.145Z,21.11
2018-10-11T10:02:50.676Z,21.15
2018-10-11T10:05:18.782Z,21.16
2018-10-11T10:07:46.937Z,21.19
2018-10-11T10:10:15.095Z,21.31
2018-10-11T10:12:43.310Z,21.35
2018-10-11T10:15:11.488Z,21.43
2018-10-11T10:17:39.704Z,21.51
2018-10-11T10:20:07.840Z,21.56
2018-10-11T10:22:36.015Z,21.61
2018-10-11T10:25:04.162Z,21.66
2018-10-11T10:27:32.422Z,21.75
2018-10-11T10:30:00.610Z,21.82
2018-10-11T10:32:28.808Z,21.87
2018-10-11T10:34:57.223Z,21.93
2018-10-11T10:37:25.446Z,21.99
2018-10-11T10:39:53.779Z,22.06
2018-10-11T10:42:21.936Z,22.13
2018-10-11T10:44:50.148Z,22.21
2018-10-11T10:47:18.418Z,22.28
2018-10-11T10:49:46.597Z,22.34
2018-10-11T10:52:14.757Z,22.39
2018-10-11T10:54:42.912Z,22.45
2018-10-11T10:57:11.097Z,22.49
2018-10-11T10:59:39.315Z,22.59
2018-10-11T11:02:07.525Z,22.63
2018-10-11T11:04:35.728Z,22.67
2018-10-11T11:07:03.946Z,22.62
2018-10-11T11:09:32.103Z,22.72
2018-10-11T11:12:00.448Z,22.77
2018-10-11T11:14:29.145Z,22.85
2018-10-11T11:16:57.388Z,22.90
2018-10-11T11:19:25.780Z,22.93
2018-10-11T11:21:53.969Z,22.98
2018-10-11T11:24:22.088Z,22.96
2018-10-11T11:26:50.363Z,23.08
2018-10-11T11:29:18.879Z,23.10
2018-10-11T11:31:47.097Z,23.10
2018-10-11T11:34:15.349Z,23.10
2018-10-11T11:36:43.572Z,23.09
2018-10-11T11:39:11.801Z,23.16
2018-10-11T11:41:39.932Z,23.19
2018-10-11T11:44:08.072Z,23.21
2018-10-11T11:46:36.187Z,23.23
2018-10-11T11:49:04.343Z,23.23
2018-10-11T11:51:32.528Z,23.24
2018-10-11T11:54:00.689Z,23.27
2018-10-11T11:56:28.846Z,23.28
2018-10-11T11:58:56.981Z,23.34
2018-10-11T12:01:25.136Z,23.35
2018-10-11T12:03:53.265Z,23.40
2018-10-11T12:06:21.424Z,23.42
2018-10-11T12:08:49.553Z,23.42
2018-10-11T12:11:17.691Z,23.44
2018-10-11T12:13:45.848Z,23.45
2018-10-11T12:16:13.989Z,23.47
2018-10-11T12:18:42.169Z,23.46
2018-10-11T12:21:10.372Z,23.50
2018-10-11T12:23:38.514Z,23.53
2018-10-11T12:26:06.803Z,23.52
2018-10-11T12:28:35.090Z,23.50
2018-10-11T12:31:03.197Z,23.54
2018-10-11T12:33:32.377Z,23.55
2018-10-11T12:36:06.939Z,23.56
2018-10-11T12:38:35.129Z,23.58
2018-10-11T12:41:03.265Z,23.58
2018-10-11T12:43:31.398Z,23.55
2018-10-11T12:45:59.561Z,23.55
2018-10-11T12:48:27.716Z,23.53
2018-10-11T12:50:55.791Z,23.53
2018-10-11T12:53:23.881Z,23.47
2018-10-11T12:55:52.000Z,23.52
2018-10-11T12:58:20.082Z,23.52
2018-10-11T13:00:48.257Z,23.52
2018-10-11T13:03:16.444Z,23.54
2018-10-11T13:05:44.480Z,23.56
2018-10-11T13:08:12.547Z,23.59
2018-10-11T13:10:40.626Z,23.59
2018-10-11T13:13:08.896Z,23.59
2018-10-11T13:15:37.087Z,23.60
2018-10-11T13:18:05.154Z,23.59
2018-10-11T13:20:33.274Z,23.61
2018-10-11T13:23:01.493Z,23.59
2018-10-11T13:25:29.604Z,23.65
2018-10-11T13:27:57.696Z,23.67
2018-10-11T13:30:25.856Z,23.69
2018-10-11T13:32:54.017Z,23.68
2018-10-11T13:35:22.193Z,23.69
2018-10-11T13:37:50.231Z,23.73
2018-10-11T13:40:18.315Z,23.76
2018-10-11T13:42:46.436Z,23.76
2018-10-11T13:45:14.528Z,23.80
2018-10-11T13:47:45.296Z,23.80
2018-10-11T13:50:10.899Z,23.79
2018-10-11T13:52:38.967Z,23.85
2018-10-11T13:55:11.114Z,23.88
2018-10-11T13:57:35.153Z,23.99
2018-10-11T14:00:03.444Z,24.00
2018-10-11T14:02:31.605Z,23.98
2018-10-11T14:04:59.709Z,24.03
2018-10-11T14:07:27.868Z,23.97
2018-10-11T14:09:55.949Z,23.96
2018-10-11T14:12:24.072Z,23.93
2018-10-11T14:14:52.146Z,24.00
2018-10-11T14:17:20.356Z,23.97
2018-10-11T14:19:48.439Z,23.96
2018-10-11T14:22:16.551Z,24.00
2018-10-11T14:24:44.629Z,24.01
2018-10-11T14:27:12.731Z,23.85
2018-10-11T14:29:40.795Z,24.00
2018-10-11T14:32:08.887Z,24.02
2018-10-11T14:34:37.024Z,24.06
2018-10-11T14:37:05.269Z,24.09
2018-10-11T14:39:33.264Z,24.05
2018-10-11T14:42:01.451Z,24.01
2018-10-11T14:44:29.573Z,23.97
2018-10-11T14:46:57.668Z,23.99
2018-10-11T14:49:26.098Z,24.01
2018-10-11T14:51:54.168Z,24.02
2018-10-11T14:54:22.236Z,23.97
2018-10-11T14:56:50.400Z,23.94
2018-10-11T14:59:20.806Z,23.96
2018-10-11T15:01:48.882Z,23.92
2018-10-11T15:04:16.965Z,23.89
2018-10-11T15:06:45.053Z,23.91
2018-10-11T15:09:13.120Z,23.89
2018-10-11T15:11:41.216Z,23.88
2018-10-11T15:14:09.276Z,23.88
2018-10-11T15:16:37.433Z,23.85
2018-10-11T15:19:05.512Z,23.81
2018-10-11T15:21:33.668Z,23.81
2018-10-11T15:24:01.812Z,23.78
2018-10-11T15:26:29.920Z,23.74
2018-10-11T15:28:57.992Z,23.73
2018-10-11T15:31:26.064Z,23.72
2018-10-11T15:33:54.283Z,23.69
2018-10-11T15:36:22.538Z,23.67
2018-10-11T15:38:50.672Z,23.63
2018-10-11T15:41:18.742Z,23.65
2018-10-11T15:43:46.905Z,23.62
2018-10-11T15:46:15.061Z,23.62
2018-10-11T15:48:43.131Z,23.58
2018-10-11T15:51:11.214Z,23.50
2018-10-11T15:53:39.344Z,23.47
2018-10-11T15:56:07.600Z,23.37
2018-10-11T15:58:35.759Z,23.27
2018-10-11T16:01:04.045Z,23.22
2018-10-11T16:03:32.144Z,23.15
2018-10-11T16:06:00.229Z,23.07
2018-10-11T16:08:28.293Z,22.99
2018-10-11T16:10:56.356Z,22.91
2018-10-11T16:13:24.536Z,22.81
2018-10-11T16:15:52.640Z,22.70
2018-10-11T16:18:20.756Z,22.61
2018-10-11T16:20:48.837Z,22.57
2018-10-11T16:23:16.924Z,22.48
2018-10-11T16:25:45.032Z,22.38
2018-10-11T16:28:13.126Z,22.28
2018-10-11T16:30:41.412Z,22.20
2018-10-11T16:33:09.421Z,22.15
2018-10-11T16:35:37.561Z,22.04
2018-10-11T16:38:05.633Z,21.93
2018-10-11T16:40:33.720Z,21.87
2018-10-11T16:43:01.782Z,21.83
2018-10-11T16:45:29.960Z,21.75
2018-10-11T16:47:58.029Z,21.70
2018-10-11T16:50:26.136Z,21.65
2018-10-11T16:52:54.228Z,21.61
2018-10-11T16:55:22.329Z,21.57
2018-10-11T16:57:50.421Z,21.52
2018-10-11T17:00:18.506Z,21.52
2018-10-11T17:02:46.593Z,21.47
2018-10-11T17:05:14.717Z,21.43
2018-10-11T17:07:42.942Z,21.37
2018-10-11T17:10:11.069Z,21.29
2018-10-11T17:12:39.164Z,21.24
2018-10-11T17:15:07.344Z,21.17
2018-10-11T17:17:35.517Z,21.07
2018-10-11T17:20:03.646Z,20.99
2018-10-11T17:22:31.716Z,20.92
2018-10-11T17:24:59.792Z,20.86
2018-10-11T17:27:28.256Z,20.80
2018-10-11T17:29:56.374Z,20.74
2018-10-11T17:32:24.692Z,20.70
2018-10-11T17:34:52.769Z,20.68
2018-10-11T17:37:20.901Z,20.65
2018-10-11T17:39:48.999Z,20.65
2018-10-11T17:42:17.176Z,20.65
2018-10-11T17:44:45.279Z,20.58
2018-10-11T17:47:13.349Z,20.50
2018-10-11T17:49:41.421Z,20.42
2018-10-11T17:52:09.500Z,20.37
2018-10-11T17:54:37.655Z,20.31
2018-10-11T17:57:05.780Z,20.25
2018-10-11T17:59:33.898Z,20.23
2018-10-11T18:02:01.984Z,20.20
2018-10-11T18:04:30.057Z,20.17
2018-10-11T18:06:58.149Z,20.15
2018-10-11T18:09:26.221Z,20.13
2018-10-11T18:11:54.294Z,20.12
2018-10-11T18:14:22.425Z,20.11
2018-10-11T18:16:50.525Z,20.14
2018-10-11T18:19:18.693Z,20.18
2018-10-11T18:21:46.843Z,20.19
2018-10-11T18:24:14.954Z,20.25
2018-10-11T18:26:43.008Z,20.31
2018-10-11T18:29:11.143Z,20.36
2018-10-11T18:31:39.160Z,20.42
2018-10-11T18:34:08.001Z,20.44
2018-10-11T18:36:36.080Z,20.50
2018-10-11T18:39:06.848Z,20.55
2018-10-11T18:41:34.924Z,20.57
2018-10-11T18:44:03.086Z,20.57
2018-10-11T18:46:31.136Z,20.59
2018-10-11T18:48:59.201Z,20.57
2018-10-11T18:51:27.273Z,20.58
2018-10-11T18:53:55.626Z,20.57
2018-10-11T18:56:23.769Z,20.58
2018-10-11T18:58:51.823Z,20.62
2018-10-11T19:01:19.949Z,20.63
2018-10-11T19:03:48.029Z,20.63
2018-10-11T19:06:16.167Z,20.64
2018-10-11T19:08:44.248Z,20.66
2018-10-11T19:11:12.546Z,20.68
2018-10-11T19:13:40.765Z,20.69
2018-10-11T19:16:09.072Z,20.68
2018-10-11T19:18:37.487Z,20.64
2018-10-11T19:21:05.581Z,20.65
2018-10-11T19:23:33.640Z,20.65
2018-10-11T19:26:01.705Z,20.59
2018-10-11T19:28:29.751Z,20.55
2018-10-11T19:30:57.913Z,20.47
2018-10-11T19:33:25.991Z,20.44
2018-10-11T19:35:54.134Z,20.39
2018-10-11T19:38:22.225Z,20.37
2018-10-11T19:40:50.570Z,20.34
2018-10-11T19:43:19.052Z,20.29
2018-10-11T19:45:47.209Z,20.30
2018-10-11T19:48:15.622Z,20.28
2018-10-11T19:50:43.716Z,20.27
2018-10-11T19:53:11.981Z,20.30
2018-10-11T19:55:40.133Z,20.31
2018-10-11T19:58:08.268Z,20.34
2018-10-11T20:00:36.332Z,20.34
2018-10-11T20:03:04.785Z,20.33
2018-10-11T20:05:32.840Z,20.42
2018-10-11T20:08:01.034Z,20.47
2018-10-11T20:10:29.064Z,20.46
2018-10-11T20:12:57.149Z,20.48
2018-10-11T20:15:25.290Z,20.52
2018-10-11T20:17:53.352Z,20.53
2018-10-11T20:20:21.399Z,20.57
2018-10-11T20:22:49.533Z,20.59
2018-10-11T20:25:17.593Z,20.62
2018-10-11T20:27:45.660Z,20.66
2018-10-11T20:30:13.856Z,20.66
2018-10-11T20:32:41.926Z,20.64
2018-10-11T20:35:10.034Z,20.61
2018-10-11T20:37:38.091Z,20.58
2018-10-11T20:40:06.246Z,20.55
2018-10-11T20:42:34.336Z,20.53
2018-10-11T20:45:02.433Z,20.50
2018-10-11T20:47:30.496Z,20.47
2018-10-11T20:49:58.669Z,20.44
2018-10-11T20:52:26.824Z,20.42
2018-10-11T20:54:54.910Z,20.37
2018-10-11T20:57:23.045Z,20.31
2018-10-11T20:59:51.141Z,20.27
2018-10-11T21:02:19.217Z,20.23
2018-10-11T21:04:47.260Z,20.20
2018-10-11T21:07:15.372Z,20.18
2018-10-11T21:09:43.441Z,20.21
2018-10-11T21:12:11.532Z,20.16
2018-10-11T21:14:39.636Z,20.13
2018-10-11T21:17:07.788Z,20.10
2018-10-11T21:19:35.849Z,20.07
2018-10-11T21:22:03.964Z,20.03
2018-10-11T21:24:32.046Z,20.04
2018-10-11T21:27:00.153Z,20.02
2018-10-11T21:29:28.363Z,20.01
2018-10-11T21:31:56.445Z,19.96
2018-10-11T21:34:24.548Z,19.94
2018-10-11T21:36:52.571Z,19.91
2018-10-11T21:39:20.648Z,19.93
2018-10-11T21:41:48.711Z,19.97
2018-10-11T21:44:16.817Z,19.99
2018-10-11T21:46:44.881Z,20.00
2018-10-11T21:49:12.953Z,20.00
2018-10-11T21:51:41.025Z,20.05
2018-10-11T21:54:09.143Z,20.12
2018-10-11T21:56:37.220Z,20.14
2018-10-11T21:59:05.384Z,20.18
2018-10-11T22:01:33.452Z,20.24
2018-10-11T22:04:01.527Z,20.20
2018-10-11T22:06:29.742Z,20.19
2018-10-11T22:08:57.902Z,20.18
2018-10-11T22:11:26.027Z,20.15
2018-10-11T22:13:54.096Z,20.14
2018-10-11T22:16:22.169Z,20.09
2018-10-11T22:18:50.244Z,20.04
2018-10-11T22:21:18.317Z,20.02
2018-10-11T22:23:46.432Z,19.99
2018-10-11T22:26:14.492Z,19.99
2018-10-11T22:28:42.557Z,19.96
2018-10-11T22:31:12.461Z,19.97
2018-10-11T22:33:41.231Z,19.94
2018-10-11T22:36:09.727Z,19.89
2018-10-11T22:38:37.837Z,19.91
2018-10-11T22:41:06.186Z,19.88
2018-10-11T22:43:34.260Z,19.91
2018-10-11T22:46:02.328Z,19.91
2018-10-11T22:48:30.400Z,19.95
2018-10-11T22:50:58.460Z,19.96
2018-10-11T22:53:26.548Z,20.00
2018-10-11T22:55:54.627Z,19.66
2018-10-11T22:58:22.714Z,19.92
2018-10-11T23:00:50.844Z,19.81
2018-10-11T23:03:18.949Z,19.73
2018-10-11T23:05:47.009Z,19.67
2018-10-11T23:08:15.080Z,19.60
2018-10-11T23:10:43.125Z,19.51
2018-10-11T23:13:11.196Z,19.43
2018-10-11T23:15:39.294Z,19.34
2018-10-11T23:18:07.360Z,19.24
2018-10-11T23:20:35.422Z,19.17
2018-10-11T23:23:03.517Z,19.08
2018-10-11T23:25:31.681Z,18.98
2018-10-11T23:27:59.736Z,18.92
2018-10-11T23:30:27.799Z,18.86
2018-10-11T23:32:55.874Z,18.78
2018-10-11T23:35:23.944Z,18.72
2018-10-11T23:37:52.005Z,18.67
2018-10-11T23:40:20.078Z,18.60
2018-10-11T23:42:48.160Z,18.54
2018-10-11T23:45:16.221Z,18.50
2018-10-11T23:47:44.275Z,18.45
2018-10-11T23:50:12.340Z,18.38
2018-10-11T23:52:40.659Z,18.36
2018-10-11T23:55:09.053Z,18.36
2018-10-11T23:57:37.109Z,18.30
